createdAt,value
2019-03-29T00:01:28.260Z,45.93
2019-03-29T00:04:16.537Z,44.73
2019-03-29T00:07:05.559Z,44.43
2019-03-29T00:09:54.793Z,43.03
2019-03-29T00:12:43.647Z,44.40
2019-03-29T00:15:31.910Z,43.37
2019-03-29T00:18:20.853Z,44.67
2019-03-29T00:21:09.457Z,43.50
2019-03-29T00:24:06.716Z,40.80
2019-03-29T00:26:47.815Z,41.97
2019-03-29T00:29:36.572Z,42.47
2019-03-29T00:32:09.251Z,43.57
2019-03-29T00:34:58.307Z,42.40
2019-03-29T00:37:53.500Z,42.43
2019-03-29T00:40:36.253Z,41.67
2019-03-29T00:43:24.634Z,39.70
2019-03-29T00:46:13.447Z,42.10
2019-03-29T00:49:01.769Z,41.43
2019-03-29T00:51:50.361Z,42.03
2019-03-29T00:54:39.316Z,42.17
2019-03-29T00:57:27.465Z,40.47
2019-03-29T01:00:16.018Z,38.80
2019-03-29T01:03:04.786Z,38.03
2019-03-29T01:05:53.048Z,36.37
2019-03-29T01:08:41.094Z,35.70
2019-03-29T01:11:29.665Z,36.10
2019-03-29T01:14:18.240Z,35.20
2019-03-29T01:17:06.917Z,38.43
2019-03-29T01:19:55.342Z,37.63
2019-03-29T01:22:44.004Z,37.60
2019-03-29T01:25:32.776Z,38.50
2019-03-29T01:28:20.921Z,37.70
2019-03-29T01:31:28.108Z,37.77
2019-03-29T01:34:16.981Z,40.03
2019-03-29T01:37:05.733Z,39.40
2019-03-29T01:39:54.415Z,38.00
2019-03-29T01:42:42.879Z,37.70
2019-03-29T01:45:31.437Z,38.77
2019-03-29T01:48:19.836Z,38.00
2019-03-29T01:51:08.561Z,38.13
2019-03-29T01:53:56.926Z,37.70
2019-03-29T01:56:45.301Z,38.10
2019-03-29T01:59:34.015Z,35.33
2019-03-29T02:02:22.408Z,36.30
2019-03-29T02:05:11.021Z,35.67
2019-03-29T02:07:59.460Z,36.67
2019-03-29T02:10:49.031Z,32.83
2019-03-29T02:13:37.488Z,34.33
2019-03-29T02:16:25.484Z,34.57
2019-03-29T02:19:13.799Z,33.57
2019-03-29T02:22:02.441Z,32.20
2019-03-29T02:24:50.957Z,31.90
2019-03-29T02:27:39.590Z,31.07
2019-03-29T02:30:28.168Z,31.57
2019-03-29T02:33:16.138Z,33.10
2019-03-29T02:36:06.483Z,31.47
2019-03-29T02:38:56.289Z,31.47
2019-03-29T02:41:46.676Z,27.80
2019-03-29T02:44:35.001Z,30.10
2019-03-29T02:47:23.921Z,28.67
2019-03-29T02:50:12.433Z,26.83
2019-03-29T02:53:00.857Z,27.27
2019-03-29T02:55:49.111Z,27.13
2019-03-29T02:58:37.753Z,26.13
2019-03-29T03:01:26.085Z,24.27
2019-03-29T03:04:14.747Z,25.40
2019-03-29T03:07:03.799Z,26.10
2019-03-29T03:09:51.906Z,25.33
2019-03-29T03:12:40.389Z,24.70
2019-03-29T03:15:28.973Z,24.27
2019-03-29T03:18:17.304Z,23.53
2019-03-29T03:21:06.639Z,24.57
2019-03-29T03:23:54.639Z,24.00
2019-03-29T03:26:43.026Z,24.43
2019-03-29T03:29:31.596Z,24.77
2019-03-29T03:32:20.259Z,25.83
2019-03-29T03:35:08.991Z,26.67
2019-03-29T03:37:57.099Z,27.53
2019-03-29T03:40:45.492Z,26.70
2019-03-29T03:43:34.500Z,26.90
2019-03-29T03:46:23.487Z,26.47
2019-03-29T03:49:11.927Z,26.90
2019-03-29T03:52:00.312Z,26.13
2019-03-29T03:54:48.522Z,28.77
2019-03-29T03:57:38.312Z,28.17
2019-03-29T04:00:28.638Z,25.73
2019-03-29T04:03:16.999Z,28.30
2019-03-29T04:06:05.672Z,26.77
2019-03-29T04:08:54.383Z,26.57
2019-03-29T04:11:43.049Z,28.60
2019-03-29T04:14:31.973Z,25.90
2019-03-29T04:17:21.189Z,28.27
2019-03-29T04:20:09.534Z,26.50
2019-03-29T04:22:58.082Z,27.23
2019-03-29T04:25:46.678Z,27.50
2019-03-29T04:28:35.560Z,26.37
2019-03-29T04:31:24.305Z,28.33
2019-03-29T04:34:12.677Z,27.90
2019-03-29T04:37:00.788Z,26.87
2019-03-29T04:40:05.775Z,26.80
2019-03-29T04:42:39.231Z,26.67
2019-03-29T04:45:28.065Z,26.00
2019-03-29T04:48:16.465Z,27.87
2019-03-29T04:51:04.349Z,26.13
2019-03-29T04:53:52.950Z,28.00
2019-03-29T04:56:41.247Z,27.20
2019-03-29T04:59:30.065Z,27.70
2019-03-29T05:02:19.302Z,26.07
2019-03-29T05:05:07.716Z,25.60
2019-03-29T05:07:56.117Z,24.77
2019-03-29T05:10:44.982Z,24.87
2019-03-29T05:13:33.716Z,24.97
2019-03-29T05:16:21.945Z,25.93
2019-03-29T05:19:10.423Z,27.07
2019-03-29T05:21:59.274Z,25.77
2019-03-29T05:24:47.870Z,26.40
2019-03-29T05:27:36.486Z,25.53
2019-03-29T05:30:25.259Z,23.80
2019-03-29T05:33:14.395Z,25.50
2019-03-29T05:36:02.762Z,24.60
2019-03-29T05:38:51.671Z,25.30
2019-03-29T05:41:40.362Z,25.20
2019-03-29T05:44:28.630Z,26.50
2019-03-29T05:47:16.720Z,25.77
2019-03-29T05:50:05.661Z,25.30
2019-03-29T05:52:53.811Z,24.43
2019-03-29T05:55:42.193Z,24.67
2019-03-29T05:58:30.145Z,24.97
2019-03-29T06:01:18.632Z,24.53
2019-03-29T06:04:07.152Z,24.30
2019-03-29T06:06:55.309Z,25.10
2019-03-29T06:09:44.571Z,23.23
2019-03-29T06:12:33.259Z,24.40
2019-03-29T06:15:06.253Z,24.63
2019-03-29T06:17:55.182Z,22.97
2019-03-29T06:20:43.356Z,23.43
2019-03-29T06:23:31.337Z,23.60
2019-03-29T06:26:20.400Z,23.23
2019-03-29T06:28:56.266Z,24.13
2019-03-29T06:31:45.587Z,24.07
2019-03-29T06:34:34.385Z,23.00
2019-03-29T06:37:23.231Z,20.83
2019-03-29T06:40:14.641Z,23.43
2019-03-29T06:43:03.512Z,21.53
2019-03-29T06:45:52.955Z,20.50
2019-03-29T06:48:23.116Z,20.20
2019-03-29T06:50:53.172Z,19.17
2019-03-29T06:53:41.361Z,18.97
2019-03-29T06:56:30.301Z,17.13
2019-03-29T06:59:18.689Z,18.00
2019-03-29T07:02:07.442Z,18.10
2019-03-29T07:04:56.022Z,19.07
2019-03-29T07:07:44.765Z,17.67
2019-03-29T07:10:33.714Z,17.80
2019-03-29T07:13:22.038Z,18.13
2019-03-29T07:16:18.401Z,18.10
2019-03-29T07:19:06.546Z,17.80
2019-03-29T07:21:55.325Z,17.57
2019-03-29T07:24:44.107Z,17.63
2019-03-29T07:27:43.859Z,17.50
2019-03-29T07:30:21.993Z,16.43
2019-03-29T07:33:10.934Z,16.37
2019-03-29T07:35:59.477Z,15.63
2019-03-29T07:38:47.988Z,17.17
2019-03-29T07:41:37.006Z,15.83
2019-03-29T07:44:25.354Z,16.27
2019-03-29T07:47:13.880Z,15.43
2019-03-29T07:50:02.703Z,15.00
2019-03-29T07:52:51.387Z,15.47
2019-03-29T07:55:39.605Z,16.03
2019-03-29T07:58:29.357Z,15.40
2019-03-29T08:01:18.288Z,16.00
2019-03-29T08:04:06.254Z,15.03
2019-03-29T08:06:54.438Z,14.83
2019-03-29T08:09:42.853Z,15.10
2019-03-29T08:12:13.155Z,15.97
2019-03-29T08:15:01.212Z,15.50
2019-03-29T08:17:49.460Z,14.90
2019-03-29T08:20:43.526Z,15.40
2019-03-29T08:23:28.866Z,14.47
2019-03-29T08:26:18.254Z,15.27
2019-03-29T08:29:07.017Z,14.10
2019-03-29T08:31:55.785Z,14.20
2019-03-29T08:34:43.895Z,13.33
2019-03-29T08:37:33.146Z,15.20
2019-03-29T08:40:22.560Z,15.40
2019-03-29T08:43:10.987Z,14.37
2019-03-29T08:45:59.954Z,14.50
2019-03-29T08:48:48.944Z,14.70
2019-03-29T08:51:37.352Z,14.50
2019-03-29T08:54:26.103Z,16.30
2019-03-29T08:57:14.674Z,17.33
2019-03-29T09:00:03.043Z,17.50
2019-03-29T09:02:51.884Z,17.17
2019-03-29T09:05:41.180Z,16.57
2019-03-29T09:08:29.556Z,16.33
2019-03-29T09:11:17.966Z,19.57
2019-03-29T09:14:06.470Z,18.60
2019-03-29T09:16:54.607Z,18.47
2019-03-29T09:19:43.596Z,20.33
2019-03-29T09:22:32.420Z,19.50
2019-03-29T09:25:21.095Z,18.23
2019-03-29T09:28:10.215Z,18.50
2019-03-29T09:30:58.691Z,18.90
2019-03-29T09:33:47.138Z,18.83
2019-03-29T09:36:35.470Z,17.30
2019-03-29T09:39:24.253Z,18.40
2019-03-29T09:42:12.691Z,18.53
2019-03-29T09:45:01.052Z,17.70
2019-03-29T09:47:49.762Z,18.10
2019-03-29T09:50:38.393Z,17.60
2019-03-29T09:53:26.880Z,16.90
2019-03-29T09:56:15.698Z,17.37
2019-03-29T09:59:04.767Z,17.57
2019-03-29T10:01:54.454Z,15.60
2019-03-29T10:04:43.101Z,16.83
2019-03-29T10:07:31.502Z,17.83
2019-03-29T10:10:20.434Z,17.50
2019-03-29T10:13:11.412Z,16.60
2019-03-29T10:16:00.392Z,16.67
2019-03-29T10:18:49.065Z,16.07
2019-03-29T10:21:38.341Z,15.87
2019-03-29T10:24:26.994Z,17.30
2019-03-29T10:27:14.979Z,15.80
2019-03-29T10:30:03.322Z,13.73
2019-03-29T10:32:55.364Z,15.27
2019-03-29T10:35:51.692Z,15.27
2019-03-29T10:38:32.389Z,16.20
2019-03-29T10:41:22.553Z,16.90
2019-03-29T10:44:11.386Z,16.17
2019-03-29T10:47:00.668Z,15.97
2019-03-29T10:49:49.216Z,15.30
2019-03-29T10:52:38.181Z,15.67
2019-03-29T10:55:26.560Z,16.27
2019-03-29T10:58:15.458Z,14.40
2019-03-29T11:01:04.532Z,14.67
2019-03-29T11:03:53.224Z,15.27
2019-03-29T11:06:42.003Z,14.40
2019-03-29T11:09:30.838Z,14.80
2019-03-29T11:12:19.707Z,14.00
2019-03-29T11:15:08.609Z,13.87
2019-03-29T11:17:57.370Z,12.90
2019-03-29T11:20:45.472Z,11.70
2019-03-29T11:23:33.699Z,11.63
2019-03-29T11:26:22.228Z,11.93
2019-03-29T11:29:10.902Z,11.40
2019-03-29T11:31:59.242Z,13.10
2019-03-29T11:34:48.027Z,12.00
2019-03-29T11:37:36.745Z,9.30
2019-03-29T11:40:24.902Z,8.10
2019-03-29T11:43:26.131Z,8.07
2019-03-29T11:46:03.906Z,6.70
2019-03-29T11:48:52.538Z,7.57
2019-03-29T11:51:40.993Z,7.37
2019-03-29T11:54:29.374Z,7.70
2019-03-29T11:57:18.280Z,8.53
2019-03-29T12:00:07.015Z,7.10
2019-03-29T12:02:55.318Z,6.77
2019-03-29T12:05:43.601Z,7.53
2019-03-29T12:08:32.083Z,8.27
2019-03-29T12:11:20.445Z,7.97
2019-03-29T12:14:08.471Z,8.40
2019-03-29T12:16:57.013Z,8.97
2019-03-29T12:19:45.133Z,7.53
2019-03-29T12:22:33.334Z,8.03
2019-03-29T12:25:21.746Z,8.83
2019-03-29T12:28:10.043Z,8.37
2019-03-29T12:30:58.148Z,8.77
2019-03-29T12:33:46.657Z,7.73
2019-03-29T12:36:35.293Z,8.30
2019-03-29T12:39:23.944Z,8.73
2019-03-29T12:42:12.397Z,9.20
2019-03-29T12:45:01.014Z,9.77
2019-03-29T12:47:49.761Z,8.10
2019-03-29T12:50:38.538Z,9.23
2019-03-29T12:53:27.242Z,8.40
2019-03-29T12:56:15.936Z,9.50
2019-03-29T12:59:05.061Z,8.20
2019-03-29T13:01:53.412Z,9.80
2019-03-29T13:04:42.036Z,8.20
2019-03-29T13:07:30.668Z,8.83
2019-03-29T13:10:19.705Z,7.43
2019-03-29T13:13:08.461Z,8.30
2019-03-29T13:15:57.085Z,8.53
2019-03-29T13:18:45.667Z,7.63
2019-03-29T13:21:34.071Z,7.50
2019-03-29T13:24:22.165Z,6.07
2019-03-29T13:27:11.123Z,5.90
2019-03-29T13:29:59.245Z,6.80
2019-03-29T13:32:48.083Z,8.70
2019-03-29T13:35:36.506Z,8.20
2019-03-29T13:38:24.728Z,10.23
2019-03-29T13:41:13.687Z,8.57
2019-03-29T13:44:02.426Z,9.17
2019-03-29T13:46:51.192Z,8.73
2019-03-29T13:49:39.359Z,9.07
2019-03-29T13:52:31.190Z,7.70
2019-03-29T13:55:18.357Z,7.10
2019-03-29T13:58:07.235Z,7.40
2019-03-29T14:00:55.964Z,7.90
2019-03-29T14:03:44.026Z,7.40
2019-03-29T14:06:32.666Z,7.00
2019-03-29T14:09:21.616Z,6.63
2019-03-29T14:12:10.084Z,5.17
2019-03-29T14:15:01.243Z,5.03
2019-03-29T14:17:48.846Z,4.97
2019-03-29T14:20:37.144Z,5.10
2019-03-29T14:23:25.811Z,4.97
2019-03-29T14:26:16.233Z,5.40
2019-03-29T14:29:03.904Z,5.30
2019-03-29T14:31:54.232Z,5.53
2019-03-29T14:34:42.779Z,5.07
2019-03-29T14:37:31.398Z,5.23
2019-03-29T14:40:20.290Z,7.27
2019-03-29T14:43:08.921Z,6.03
2019-03-29T14:45:57.855Z,5.50
2019-03-29T14:48:46.431Z,5.60
2019-03-29T14:51:34.724Z,5.13
2019-03-29T14:54:22.782Z,5.10
2019-03-29T14:57:10.735Z,5.30
2019-03-29T15:00:00.053Z,5.63
2019-03-29T15:02:48.679Z,5.60
2019-03-29T15:05:36.936Z,4.67
2019-03-29T15:08:25.096Z,4.50
2019-03-29T15:11:22.257Z,4.23
2019-03-29T15:14:03.922Z,4.47
2019-03-29T15:16:52.386Z,4.47
2019-03-29T15:19:40.869Z,4.30
2019-03-29T15:22:29.537Z,3.90
2019-03-29T15:25:17.928Z,3.97
2019-03-29T15:27:47.707Z,4.80
2019-03-29T15:30:37.598Z,4.00
2019-03-29T15:33:27.656Z,4.27
2019-03-29T15:36:17.182Z,4.00
2019-03-29T15:39:07.775Z,4.07
2019-03-29T15:41:57.520Z,4.03
2019-03-29T15:44:47.549Z,4.20
2019-03-29T15:47:36.653Z,4.40
2019-03-29T15:50:26.166Z,4.50
2019-03-29T15:53:15.159Z,4.60
2019-03-29T15:56:04.945Z,4.77
2019-03-29T15:58:54.561Z,4.10
2019-03-29T16:01:44.478Z,3.80
2019-03-29T16:04:18.354Z,4.40
2019-03-29T16:07:08.413Z,4.13
2019-03-29T16:09:58.511Z,3.67
2019-03-29T16:12:48.150Z,4.57
2019-03-29T16:15:38.518Z,4.23
2019-03-29T16:18:28.780Z,3.80
2019-03-29T16:21:18.257Z,3.70
2019-03-29T16:24:08.278Z,4.20
2019-03-29T16:26:57.563Z,4.27
2019-03-29T16:29:47.129Z,4.00
2019-03-29T16:32:37.202Z,4.23
2019-03-29T16:35:26.981Z,4.03
2019-03-29T16:38:16.520Z,3.83
2019-03-29T16:41:05.996Z,4.10
2019-03-29T16:43:56.051Z,4.23
2019-03-29T16:46:46.160Z,4.57
2019-03-29T16:49:36.034Z,4.10
2019-03-29T16:52:06.874Z,4.00
2019-03-29T16:54:56.480Z,4.40
2019-03-29T16:57:46.824Z,4.47
2019-03-29T17:00:36.652Z,5.50
2019-03-29T17:03:26.131Z,4.70
2019-03-29T17:06:16.313Z,5.17
2019-03-29T17:09:07.673Z,5.17
2019-03-29T17:11:57.362Z,8.07
2019-03-29T17:14:47.213Z,4.87
2019-03-29T17:17:36.638Z,4.60
2019-03-29T17:20:26.471Z,4.40
2019-03-29T17:22:57.348Z,4.27
2019-03-29T17:25:46.965Z,6.30
2019-03-29T17:28:36.266Z,4.33
2019-03-29T17:31:26.245Z,4.27
2019-03-29T17:34:15.969Z,3.90
2019-03-29T17:37:05.474Z,4.03
2019-03-29T17:39:54.786Z,4.10
2019-03-29T17:42:44.893Z,4.40
2019-03-29T17:45:34.083Z,4.30
2019-03-29T17:48:23.803Z,4.63
2019-03-29T17:51:13.153Z,3.87
2019-03-29T17:54:02.959Z,3.70
2019-03-29T17:56:52.282Z,4.23
2019-03-29T17:59:42.348Z,4.10
2019-03-29T18:02:31.649Z,4.00
2019-03-29T18:05:21.702Z,4.23
2019-03-29T18:08:11.112Z,3.83
2019-03-29T18:11:01.308Z,4.40
2019-03-29T18:13:51.088Z,4.33
2019-03-29T18:16:41.167Z,5.30
2019-03-29T18:19:31.009Z,5.40
2019-03-29T18:22:20.568Z,5.10
2019-03-29T18:25:10.411Z,4.97
2019-03-29T18:28:00.457Z,4.00
2019-03-29T18:30:43.323Z,4.30
2019-03-29T18:33:14.116Z,4.97
2019-03-29T18:35:45.072Z,5.03
2019-03-29T18:38:16.122Z,5.00
2019-03-29T18:40:47.103Z,5.60
2019-03-29T18:43:17.760Z,5.30
2019-03-29T18:45:48.470Z,6.17
2019-03-29T18:48:19.125Z,5.40
2019-03-29T18:50:49.926Z,5.70
2019-03-29T18:53:21.193Z,5.43
2019-03-29T18:55:51.776Z,5.60
2019-03-29T18:58:41.118Z,5.60
2019-03-29T19:01:31.308Z,5.37
2019-03-29T19:04:20.400Z,6.93
2019-03-29T19:07:10.347Z,5.43
2019-03-29T19:10:00.383Z,5.87
2019-03-29T19:12:49.680Z,6.33
2019-03-29T19:15:38.865Z,6.43
2019-03-29T19:18:28.969Z,6.33
2019-03-29T19:21:26.929Z,8.00
2019-03-29T19:24:16.652Z,9.63
2019-03-29T19:27:06.979Z,10.87
2019-03-29T19:29:56.689Z,9.63
2019-03-29T19:32:46.365Z,9.00
2019-03-29T19:35:35.988Z,10.17
2019-03-29T19:38:26.008Z,9.67
2019-03-29T19:41:15.732Z,9.40
2019-03-29T19:44:04.971Z,8.70
2019-03-29T19:46:54.734Z,9.73
2019-03-29T19:49:44.568Z,9.30
2019-03-29T19:52:34.643Z,7.63
2019-03-29T19:55:24.542Z,8.10
2019-03-29T19:58:14.195Z,7.80
2019-03-29T20:01:04.186Z,7.07
2019-03-29T20:03:54.064Z,8.03
2019-03-29T20:06:43.831Z,8.73
2019-03-29T20:09:33.449Z,9.67
2019-03-29T20:12:25.116Z,10.90
2019-03-29T20:15:13.353Z,9.47
2019-03-29T20:18:05.850Z,9.17
2019-03-29T20:20:55.736Z,10.50
2019-03-29T20:23:46.099Z,9.00
2019-03-29T20:26:36.120Z,9.80
2019-03-29T20:29:25.539Z,8.40
2019-03-29T20:32:16.056Z,8.80
2019-03-29T20:35:05.832Z,7.10
2019-03-29T20:37:55.930Z,7.80
2019-03-29T20:40:45.739Z,7.20
2019-03-29T20:43:35.859Z,7.03
2019-03-29T20:46:16.130Z,7.20
2019-03-29T20:49:06.017Z,7.50
2019-03-29T20:51:55.201Z,6.87
2019-03-29T20:54:44.590Z,6.80
2019-03-29T20:57:34.173Z,7.07
2019-03-29T21:00:24.593Z,6.23
2019-03-29T21:03:13.855Z,6.80
2019-03-29T21:06:03.470Z,7.17
2019-03-29T21:08:53.209Z,7.43
2019-03-29T21:11:42.573Z,7.60
2019-03-29T21:14:32.382Z,7.33
2019-03-29T21:17:22.670Z,7.70
2019-03-29T21:20:12.931Z,7.20
2019-03-29T21:23:02.807Z,7.30
2019-03-29T21:25:52.230Z,6.77
2019-03-29T21:28:41.754Z,6.43
2019-03-29T21:31:31.709Z,6.03
2019-03-29T21:34:21.991Z,6.60
2019-03-29T21:37:11.667Z,6.03
2019-03-29T21:40:02.582Z,6.50
2019-03-29T21:42:52.661Z,6.40
2019-03-29T21:45:42.635Z,6.30
2019-03-29T21:48:57.627Z,5.90
2019-03-29T21:51:46.924Z,6.30
2019-03-29T21:54:36.967Z,6.50
2019-03-29T21:57:26.089Z,6.50
2019-03-29T22:00:17.379Z,6.00
2019-03-29T22:03:07.621Z,6.13
2019-03-29T22:05:56.972Z,7.87
2019-03-29T22:08:46.968Z,7.50
2019-03-29T22:11:36.501Z,7.07
2019-03-29T22:14:26.390Z,6.87
2019-03-29T22:17:15.839Z,7.80
2019-03-29T22:20:05.962Z,7.30
2019-03-29T22:22:55.888Z,7.10
2019-03-29T22:25:45.682Z,7.27
2019-03-29T22:28:35.884Z,7.00
2019-03-29T22:31:25.023Z,7.00
2019-03-29T22:34:14.616Z,7.17
2019-03-29T22:37:04.356Z,6.93
2019-03-29T22:39:54.819Z,7.30
2019-03-29T22:42:44.096Z,7.10
2019-03-29T22:45:34.142Z,7.30
2019-03-29T22:48:23.413Z,6.77
2019-03-29T22:51:13.151Z,7.10
2019-03-29T22:54:02.826Z,6.53
2019-03-29T22:56:51.963Z,6.90
2019-03-29T22:59:26.750Z,6.80
2019-03-29T23:02:16.442Z,6.70
2019-03-29T23:05:07.387Z,6.60
2019-03-29T23:07:57.283Z,5.87
2019-03-29T23:10:47.276Z,6.43
2019-03-29T23:13:37.129Z,6.43
2019-03-29T23:16:30.182Z,6.40
2019-03-29T23:19:17.999Z,6.47
2019-03-29T23:22:07.774Z,6.47
2019-03-29T23:24:57.842Z,6.80
2019-03-29T23:27:47.727Z,6.73
2019-03-29T23:30:37.331Z,6.20
2019-03-29T23:33:26.910Z,6.40
2019-03-29T23:36:17.107Z,6.60
2019-03-29T23:39:07.422Z,6.60
2019-03-29T23:41:57.549Z,6.17
2019-03-29T23:44:47.647Z,7.10
2019-03-29T23:47:37.631Z,6.73
2019-03-29T23:50:27.046Z,6.93
2019-03-29T23:53:16.905Z,6.73
2019-03-29T23:56:06.705Z,6.20
2019-03-29T23:58:56.033Z,6.60
